Sawyer County Airport
KHYR : now visible

Airfield :











YOU CAN JOIN US ON...

 
LOGIN :

Register | Disclaimer

   EN    FR    IT 

 









Legend :    VFR   Marginal VFR   IFR   Intensive IFR   Very Intensive IFR
Visi :
Ceiling :
>= 8 km
>= 3000ft
5 to 8 km
1000 to 3000 ft
1500m to 5 km
500 to 1000 ft
800 to 1500m
200 to 500 ft
< 800m
< 200 ft
Symbols :   Thunderstorms  Fog  Heavy snow  Heavy precipitations  Wind > 20 kt






- Airport Elevation : 1216 ft


KHYR - Sawyer County

CURRENT METAR :
  • 240853Z AUTO 00000KT 10SM CLR M06/M07 A3021 RMK AO2 SLP248 I1001 I3001 T10561067 53012

EXPIRED METARs :
  • 240753Z AUTO 00000KT 10SM CLR M05/M06 A3019 RMK AO2 SLP241 T10501061
  • 240653Z AUTO 00000KT 10SM CLR M04/M05 A3019 RMK AO2 SLP236 T10391050
  • 240553Z AUTO 36003KT 10SM CLR M03/M05 A3017 RMK AO2 SLP229 T10331050 10039 21033 401501033 53020
  • 240453Z AUTO 03004KT 10SM CLR M02/M04 A3015 RMK AO2 SLP219 T10221044

TAF KHYR
Valid from the 24 at 06:00 until the 25 at 06:00 UTC


240529Z 2406/2506 VRB05KT P6SM SKC
KZMP FIR / North America



MET'MAP, your aeronautical weather chart ! - Copyright ORBIFLY December 2007 - Disclaimer

ORBIFLY MET'MAP TEAM :

Programming & Development : Alexandra Zaïnal
Original concept : Baudouin d'Aumeries
Technical & hardware support : Manuel Goepfert
Assistance : Marc-Olivier Méhu




SOURCES & CREDITS :

   NOAA       Earth
Advisory